sensor_id;sensor_type;location;lat;lon;timestamp;temperature;humidity
4433;DHT22;2229;48.708;9.706;2022-11-20T00:00:53;7.40;99.90
4433;DHT22;2229;48.708;9.706;2022-11-20T00:03:21;7.40;99.90
4433;DHT22;2229;48.708;9.706;2022-11-20T00:05:48;7.40;99.90
4433;DHT22;2229;48.708;9.706;2022-11-20T00:08:17;7.40;99.90
4433;DHT22;2229;48.708;9.706;2022-11-20T00:10:44;7.30;99.90
4433;DHT22;2229;48.708;9.706;2022-11-20T00:13:11;7.30;99.90
4433;DHT22;2229;48.708;9.706;2022-11-20T00:15:38;7.20;99.90
4433;DHT22;2229;48.708;9.706;2022-11-20T00:18:05;7.10;99.90
4433;DHT22;2229;48.708;9.706;2022-11-20T00:20:33;7.10;99.90
4433;DHT22;2229;48.708;9.706;2022-11-20T00:23:00;6.90;99.90
4433;DHT22;2229;48.708;9.706;2022-11-20T00:25:29;6.90;99.90
4433;DHT22;2229;48.708;9.706;2022-11-20T00:27:56;6.80;99.90
4433;DHT22;2229;48.708;9.706;2022-11-20T00:30:23;6.70;99.90
4433;DHT22;2229;48.708;9.706;2022-11-20T00:32:50;6.70;99.90
4433;DHT22;2229;48.708;9.706;2022-11-20T00:35:17;6.60;99.90
4433;DHT22;2229;48.708;9.706;2022-11-20T00:38:07;6.50;99.90
4433;DHT22;2229;48.708;9.706;2022-11-20T00:40:36;6.50;99.90
4433;DHT22;2229;48.708;9.706;2022-11-20T00:43:04;6.50;99.90
4433;DHT22;2229;48.708;9.706;2022-11-20T00:45:31;6.40;99.90
4433;DHT22;2229;48.708;9.706;2022-11-20T00:47:58;6.20;99.90
4433;DHT22;2229;48.708;9.706;2022-11-20T00:50:25;6.30;99.90
4433;DHT22;2229;48.708;9.706;2022-11-20T00:52:52;6.30;99.90
4433;DHT22;2229;48.708;9.706;2022-11-20T00:55:19;6.30;99.90
4433;DHT22;2229;48.708;9.706;2022-11-20T00:57:48;6.20;99.90
4433;DHT22;2229;48.708;9.706;2022-11-20T01:00:15;6.20;99.90
4433;DHT22;2229;48.708;9.706;2022-11-20T01:02:43;6.10;99.90
4433;DHT22;2229;48.708;9.706;2022-11-20T01:05:10;6.10;99.90
4433;DHT22;2229;48.708;9.706;2022-11-20T01:07:37;6.00;99.90
4433;DHT22;2229;48.708;9.706;2022-11-20T01:10:05;6.00;99.90
4433;DHT22;2229;48.708;9.706;2022-11-20T01:12:32;6.00;99.90
4433;DHT22;2229;48.708;9.706;2022-11-20T01:15:00;6.00;99.90
4433;DHT22;2229;48.708;9.706;2022-11-20T01:17:28;5.90;99.90
4433;DHT22;2229;48.708;9.706;2022-11-20T01:19:55;5.90;99.90
4433;DHT22;2229;48.708;9.706;2022-11-20T01:22:22;5.90;99.90
4433;DHT22;2229;48.708;9.706;2022-11-20T01:24:49;5.80;99.90
4433;DHT22;2229;48.708;9.706;2022-11-20T01:27:16;5.80;99.90
4433;DHT22;2229;48.708;9.706;2022-11-20T01:29:44;5.80;99.90
4433;DHT22;2229;48.708;9.706;2022-11-20T01:32:12;5.80;99.90
4433;DHT22;2229;48.708;9.706;2022-11-20T01:34:39;5.80;99.90
4433;DHT22;2229;48.708;9.706;2022-11-20T01:37:06;5.80;99.90
4433;DHT22;2229;48.708;9.706;2022-11-20T01:39:33;5.80;99.90
4433;DHT22;2229;48.708;9.706;2022-11-20T01:42:01;5.80;99.90
4433;DHT22;2229;48.708;9.706;2022-11-20T01:44:52;5.80;99.90
4433;DHT22;2229;48.708;9.706;2022-11-20T01:47:25;5.80;99.90
4433;DHT22;2229;48.708;9.706;2022-11-20T01:49:56;5.80;99.90
4433;DHT22;2229;48.708;9.706;2022-11-20T01:52:29;5.80;99.90
4433;DHT22;2229;48.708;9.706;2022-11-20T01:55:01;5.80;99.90
4433;DHT22;2229;48.708;9.706;2022-11-20T01:57:33;5.90;99.90
4433;DHT22;2229;48.708;9.706;2022-11-20T02:00:04;5.90;99.90
4433;DHT22;2229;48.708;9.706;2022-11-20T02:02:42;5.90;99.90
4433;DHT22;2229;48.708;9.706;2022-11-20T02:05:16;6.00;99.90
4433;DHT22;2229;48.708;9.706;2022-11-20T02:07:45;6.00;99.90
4433;DHT22;2229;48.708;9.706;2022-11-20T02:10:13;6.10;99.90
4433;DHT22;2229;48.708;9.706;2022-11-20T02:12:41;6.10;99.90
4433;DHT22;2229;48.708;9.706;2022-11-20T02:15:26;6.10;99.90
4433;DHT22;2229;48.708;9.706;2022-11-20T02:17:55;6.10;99.90
4433;DHT22;2229;48.708;9.706;2022-11-20T02:20:22;6.00;99.90
4433;DHT22;2229;48.708;9.706;2022-11-20T02:22:54;6.00;99.90
4433;DHT22;2229;48.708;9.706;2022-11-20T02:25:26;6.00;99.90
4433;DHT22;2229;48.708;9.706;2022-11-20T02:27:54;6.00;99.90
4433;DHT22;2229;48.708;9.706;2022-11-20T02:30:21;6.00;99.90
4433;DHT22;2229;48.708;9.706;2022-11-20T02:32:49;6.00;99.90
4433;DHT22;2229;48.708;9.706;2022-11-20T02:35:43;6.00;99.90
4433;DHT22;2229;48.708;9.706;2022-11-20T02:38:23;5.90;99.90
4433;DHT22;2229;48.708;9.706;2022-11-20T02:40:52;5.90;99.90
4433;DHT22;2229;48.708;9.706;2022-11-20T02:43:19;5.80;99.90
4433;DHT22;2229;48.708;9.706;2022-11-20T02:45:46;5.80;99.90
4433;DHT22;2229;48.708;9.706;2022-11-20T02:48:13;5.80;99.90
4433;DHT22;2229;48.708;9.706;2022-11-20T02:50:41;5.80;99.90
4433;DHT22;2229;48.708;9.706;2022-11-20T02:53:09;5.80;99.90
4433;DHT22;2229;48.708;9.706;2022-11-20T02:55:36;5.80;99.90
4433;DHT22;2229;48.708;9.706;2022-11-20T02:58:05;5.80;99.90
4433;DHT22;2229;48.708;9.706;2022-11-20T03:00:38;5.70;99.90
4433;DHT22;2229;48.708;9.706;2022-11-20T03:03:05;5.70;99.90
4433;DHT22;2229;48.708;9.706;2022-11-20T03:05:32;5.70;99.90
4433;DHT22;2229;48.708;9.706;2022-11-20T03:07:59;5.70;99.90
4433;DHT22;2229;48.708;9.706;2022-11-20T03:10:26;5.70;99.90
4433;DHT22;2229;48.708;9.706;2022-11-20T03:12:54;5.70;99.90
4433;DHT22;2229;48.708;9.706;2022-11-20T03:15:23;5.70;99.90
4433;DHT22;2229;48.708;9.706;2022-11-20T03:17:53;5.70;99.90
4433;DHT22;2229;48.708;9.706;2022-11-20T03:20:20;5.70;99.90
4433;DHT22;2229;48.708;9.706;2022-11-20T03:22:47;5.70;99.90
4433;DHT22;2229;48.708;9.706;2022-11-20T03:25:14;5.70;99.90
4433;DHT22;2229;48.708;9.706;2022-11-20T03:27:41;5.70;99.90
4433;DHT22;2229;48.708;9.706;2022-11-20T03:30:09;5.70;99.90
4433;DHT22;2229;48.708;9.706;2022-11-20T03:32:38;5.80;99.90
4433;DHT22;2229;48.708;9.706;2022-11-20T03:35:06;5.80;99.90
4433;DHT22;2229;48.708;9.706;2022-11-20T03:37:33;5.80;99.90
4433;DHT22;2229;48.708;9.706;2022-11-20T03:40:00;5.80;99.90
4433;DHT22;2229;48.708;9.706;2022-11-20T03:42:27;5.90;99.90
4433;DHT22;2229;48.708;9.706;2022-11-20T03:45:13;5.90;99.90
4433;DHT22;2229;48.708;9.706;2022-11-20T03:47:41;5.90;99.90
4433;DHT22;2229;48.708;9.706;2022-11-20T03:50:10;5.90;99.90
4433;DHT22;2229;48.708;9.706;2022-11-20T03:52:38;6.00;99.90
4433;DHT22;2229;48.708;9.706;2022-11-20T03:55:05;6.00;99.90
4433;DHT22;2229;48.708;9.706;2022-11-20T03:57:33;6.00;99.90
4433;DHT22;2229;48.708;9.706;2022-11-20T04:00:00;6.00;99.90
4433;DHT22;2229;48.708;9.706;2022-11-20T04:02:30;6.10;99.90
4433;DHT22;2229;48.708;9.706;2022-11-20T04:05:02;6.10;99.90
4433;DHT22;2229;48.708;9.706;2022-11-20T04:07:29;6.10;99.90
4433;DHT22;2229;48.708;9.706;2022-11-20T04:09:57;6.10;99.90
4433;DHT22;2229;48.708;9.706;2022-11-20T04:12:25;6.10;99.90
4433;DHT22;2229;48.708;9.706;2022-11-20T04:14:52;6.10;99.90
4433;DHT22;2229;48.708;9.706;2022-11-20T04:17:19;6.10;99.90
4433;DHT22;2229;48.708;9.706;2022-11-20T04:19:46;6.10;99.90
4433;DHT22;2229;48.708;9.706;2022-11-20T04:22:15;6.10;99.90
4433;DHT22;2229;48.708;9.706;2022-11-20T04:24:42;6.10;99.90
4433;DHT22;2229;48.708;9.706;2022-11-20T04:27:09;6.20;99.90
4433;DHT22;2229;48.708;9.706;2022-11-20T04:29:36;6.20;99.90
4433;DHT22;2229;48.708;9.706;2022-11-20T04:32:04;6.20;99.90
4433;DHT22;2229;48.708;9.706;2022-11-20T04:34:31;6.20;99.90
4433;DHT22;2229;48.708;9.706;2022-11-20T04:36:58;6.10;99.90
4433;DHT22;2229;48.708;9.706;2022-11-20T04:39:27;6.10;99.90
4433;DHT22;2229;48.708;9.706;2022-11-20T04:41:54;6.10;99.90
4433;DHT22;2229;48.708;9.706;2022-11-20T04:44:35;6.10;99.90
4433;DHT22;2229;48.708;9.706;2022-11-20T04:47:03;6.10;99.90
4433;DHT22;2229;48.708;9.706;2022-11-20T04:49:31;6.10;99.90
4433;DHT22;2229;48.708;9.706;2022-11-20T04:51:59;6.10;99.90
4433;DHT22;2229;48.708;9.706;2022-11-20T04:54:28;6.10;99.90
4433;DHT22;2229;48.708;9.706;2022-11-20T04:56:55;6.10;99.90
4433;DHT22;2229;48.708;9.706;2022-11-20T04:59:22;6.20;99.90
4433;DHT22;2229;48.708;9.706;2022-11-20T05:01:49;6.20;99.90
4433;DHT22;2229;48.708;9.706;2022-11-20T05:04:16;6.30;99.90
4433;DHT22;2229;48.708;9.706;2022-11-20T05:06:46;6.30;99.90
4433;DHT22;2229;48.708;9.706;2022-11-20T05:09:13;6.30;99.90
4433;DHT22;2229;48.708;9.706;2022-11-20T05:12:02;6.30;99.90
4433;DHT22;2229;48.708;9.706;2022-11-20T05:14:30;6.30;99.90
4433;DHT22;2229;48.708;9.706;2022-11-20T05:16:57;6.30;99.90
4433;DHT22;2229;48.708;9.706;2022-11-20T05:19:24;6.30;99.90
4433;DHT22;2229;48.708;9.706;2022-11-20T05:21:52;6.40;99.90
4433;DHT22;2229;48.708;9.706;2022-11-20T05:24:25;6.40;99.90
4433;DHT22;2229;48.708;9.706;2022-11-20T05:26:52;6.40;99.90
4433;DHT22;2229;48.708;9.706;2022-11-20T05:29:20;6.50;99.90
4433;DHT22;2229;48.708;9.706;2022-11-20T05:31:47;6.50;99.90
4433;DHT22;2229;48.708;9.706;2022-11-20T05:34:15;6.50;99.90
4433;DHT22;2229;48.708;9.706;2022-11-20T05:36:45;6.50;99.90
4433;DHT22;2229;48.708;9.706;2022-11-20T05:39:12;6.50;99.90
4433;DHT22;2229;48.708;9.706;2022-11-20T05:41:39;6.50;99.90
4433;DHT22;2229;48.708;9.706;2022-11-20T05:44:06;6.60;99.90
4433;DHT22;2229;48.708;9.706;2022-11-20T05:46:35;6.60;99.90
4433;DHT22;2229;48.708;9.706;2022-11-20T05:49:03;6.60;99.90
4433;DHT22;2229;48.708;9.706;2022-11-20T05:51:30;6.60;99.90
4433;DHT22;2229;48.708;9.706;2022-11-20T05:53:57;6.60;99.90
4433;DHT22;2229;48.708;9.706;2022-11-20T05:56:25;6.60;99.90
4433;DHT22;2229;48.708;9.706;2022-11-20T05:58:52;6.60;99.90
4433;DHT22;2229;48.708;9.706;2022-11-20T06:01:21;6.60;99.90
4433;DHT22;2229;48.708;9.706;2022-11-20T06:03:50;6.60;99.90
4433;DHT22;2229;48.708;9.706;2022-11-20T06:06:19;6.60;99.90
4433;DHT22;2229;48.708;9.706;2022-11-20T06:08:46;6.60;99.90
4433;DHT22;2229;48.708;9.706;2022-11-20T06:11:15;6.60;99.90
4433;DHT22;2229;48.708;9.706;2022-11-20T06:13:44;6.60;99.90
4433;DHT22;2229;48.708;9.706;2022-11-20T06:16:14;6.60;99.90
4433;DHT22;2229;48.708;9.706;2022-11-20T06:18:41;6.60;99.90
4433;DHT22;2229;48.708;9.706;2022-11-20T06:21:12;6.60;99.90
4433;DHT22;2229;48.708;9.706;2022-11-20T06:23:39;6.60;99.90
4433;DHT22;2229;48.708;9.706;2022-11-20T06:26:08;6.70;99.90
4433;DHT22;2229;48.708;9.706;2022-11-20T06:28:36;6.70;99.90
4433;DHT22;2229;48.708;9.706;2022-11-20T06:31:03;6.70;99.90
4433;DHT22;2229;48.708;9.706;2022-11-20T06:33:31;6.70;99.90
4433;DHT22;2229;48.708;9.706;2022-11-20T06:35:58;6.80;99.90
4433;DHT22;2229;48.708;9.706;2022-11-20T06:38:28;6.80;99.90
4433;DHT22;2229;48.708;9.706;2022-11-20T06:40:55;6.80;99.90
4433;DHT22;2229;48.708;9.706;2022-11-20T06:43:23;6.80;99.90
4433;DHT22;2229;48.708;9.706;2022-11-20T06:45:54;6.70;99.90
4433;DHT22;2229;48.708;9.706;2022-11-20T06:48:22;6.80;99.90
4433;DHT22;2229;48.708;9.706;2022-11-20T06:50:50;6.80;99.90
4433;DHT22;2229;48.708;9.706;2022-11-20T06:53:17;6.80;99.90
4433;DHT22;2229;48.708;9.706;2022-11-20T06:55:46;6.80;99.90
4433;DHT22;2229;48.708;9.706;2022-11-20T06:58:15;6.80;99.90
4433;DHT22;2229;48.708;9.706;2022-11-20T07:00:43;6.80;99.90
4433;DHT22;2229;48.708;9.706;2022-11-20T07:03:12;6.80;99.90
4433;DHT22;2229;48.708;9.706;2022-11-20T07:05:39;6.80;99.90
4433;DHT22;2229;48.708;9.706;2022-11-20T07:08:07;6.80;99.90
4433;DHT22;2229;48.708;9.706;2022-11-20T07:10:40;6.80;99.90
4433;DHT22;2229;48.708;9.706;2022-11-20T07:13:09;6.90;99.90
4433;DHT22;2229;48.708;9.706;2022-11-20T07:15:36;6.80;99.90
4433;DHT22;2229;48.708;9.706;2022-11-20T07:18:03;6.90;99.90
4433;DHT22;2229;48.708;9.706;2022-11-20T07:20:31;6.90;99.90
4433;DHT22;2229;48.708;9.706;2022-11-20T07:22:58;6.90;99.90
4433;DHT22;2229;48.708;9.706;2022-11-20T07:25:27;6.90;99.90
4433;DHT22;2229;48.708;9.706;2022-11-20T07:28:22;6.90;99.90
4433;DHT22;2229;48.708;9.706;2022-11-20T07:30:50;6.90;99.90
4433;DHT22;2229;48.708;9.706;2022-11-20T07:33:17;6.90;99.90
4433;DHT22;2229;48.708;9.706;2022-11-20T07:35:45;6.90;99.90
4433;DHT22;2229;48.708;9.706;2022-11-20T07:38:12;6.90;99.90
4433;DHT22;2229;48.708;9.706;2022-11-20T07:40:39;7.00;99.90
4433;DHT22;2229;48.708;9.706;2022-11-20T07:43:06;7.00;99.90
4433;DHT22;2229;48.708;9.706;2022-11-20T07:45:35;7.00;99.90
4433;DHT22;2229;48.708;9.706;2022-11-20T07:48:03;7.00;99.90
4433;DHT22;2229;48.708;9.706;2022-11-20T07:50:30;7.00;99.90
4433;DHT22;2229;48.708;9.706;2022-11-20T07:53:02;7.00;99.90
4433;DHT22;2229;48.708;9.706;2022-11-20T07:55:29;7.00;99.90
4433;DHT22;2229;48.708;9.706;2022-11-20T07:57:56;7.00;99.90
4433;DHT22;2229;48.708;9.706;2022-11-20T08:00:24;7.00;99.90
4433;DHT22;2229;48.708;9.706;2022-11-20T08:02:53;7.00;99.90
4433;DHT22;2229;48.708;9.706;2022-11-20T08:05:20;7.00;99.90
4433;DHT22;2229;48.708;9.706;2022-11-20T08:07:47;7.00;99.90
4433;DHT22;2229;48.708;9.706;2022-11-20T08:10:15;7.00;99.90
4433;DHT22;2229;48.708;9.706;2022-11-20T08:12:46;7.00;99.90
4433;DHT22;2229;48.708;9.706;2022-11-20T08:15:32;7.10;99.90
4433;DHT22;2229;48.708;9.706;2022-11-20T08:18:02;7.10;99.90
4433;DHT22;2229;48.708;9.706;2022-11-20T08:20:30;7.10;99.90
4433;DHT22;2229;48.708;9.706;2022-11-20T08:22:58;7.10;99.90
4433;DHT22;2229;48.708;9.706;2022-11-20T08:25:26;7.10;99.90
4433;DHT22;2229;48.708;9.706;2022-11-20T08:27:54;7.10;99.90
4433;DHT22;2229;48.708;9.706;2022-11-20T08:30:21;7.10;99.90
4433;DHT22;2229;48.708;9.706;2022-11-20T08:32:48;7.10;99.90
4433;DHT22;2229;48.708;9.706;2022-11-20T08:35:17;7.20;99.90
4433;DHT22;2229;48.708;9.706;2022-11-20T08:37:46;7.20;99.90
4433;DHT22;2229;48.708;9.706;2022-11-20T08:40:14;7.20;99.90
4433;DHT22;2229;48.708;9.706;2022-11-20T08:42:46;7.30;99.90
4433;DHT22;2229;48.708;9.706;2022-11-20T08:45:14;7.30;99.90
4433;DHT22;2229;48.708;9.706;2022-11-20T08:47:41;7.30;99.90
4433;DHT22;2229;48.708;9.706;2022-11-20T08:50:20;7.30;99.90
4433;DHT22;2229;48.708;9.706;2022-11-20T08:52:47;7.20;99.90
4433;DHT22;2229;48.708;9.706;2022-11-20T08:55:14;7.30;99.90
4433;DHT22;2229;48.708;9.706;2022-11-20T08:57:41;7.30;99.90
4433;DHT22;2229;48.708;9.706;2022-11-20T09:00:10;7.40;99.90
4433;DHT22;2229;48.708;9.706;2022-11-20T09:02:38;7.60;99.90
4433;DHT22;2229;48.708;9.706;2022-11-20T09:05:06;7.70;99.90
4433;DHT22;2229;48.708;9.706;2022-11-20T09:07:34;7.70;99.90
4433;DHT22;2229;48.708;9.706;2022-11-20T09:10:01;7.70;99.90
4433;DHT22;2229;48.708;9.706;2022-11-20T09:12:29;7.70;99.90
4433;DHT22;2229;48.708;9.706;2022-11-20T09:14:56;7.60;99.90
4433;DHT22;2229;48.708;9.706;2022-11-20T09:17:23;7.60;99.90
4433;DHT22;2229;48.708;9.706;2022-11-20T09:19:50;7.60;99.90
4433;DHT22;2229;48.708;9.706;2022-11-20T09:22:17;7.50;99.90
4433;DHT22;2229;48.708;9.706;2022-11-20T09:24:46;7.50;99.90
4433;DHT22;2229;48.708;9.706;2022-11-20T09:27:14;7.50;99.90
4433;DHT22;2229;48.708;9.706;2022-11-20T09:29:41;7.50;99.90
4433;DHT22;2229;48.708;9.706;2022-11-20T09:32:09;7.40;99.90
4433;DHT22;2229;48.708;9.706;2022-11-20T09:34:37;7.40;99.90
4433;DHT22;2229;48.708;9.706;2022-11-20T09:37:07;7.40;99.90
4433;DHT22;2229;48.708;9.706;2022-11-20T09:39:34;7.30;99.90
4433;DHT22;2229;48.708;9.706;2022-11-20T09:42:27;7.40;99.90
4433;DHT22;2229;48.708;9.706;2022-11-20T09:45:23;7.30;99.90
4433;DHT22;2229;48.708;9.706;2022-11-20T09:48:11;7.40;99.90
4433;DHT22;2229;48.708;9.706;2022-11-20T09:50:45;7.30;99.90
4433;DHT22;2229;48.708;9.706;2022-11-20T09:53:23;7.40;99.90
4433;DHT22;2229;48.708;9.706;2022-11-20T09:55:53;7.40;99.90
4433;DHT22;2229;48.708;9.706;2022-11-20T09:58:32;7.40;99.90
4433;DHT22;2229;48.708;9.706;2022-11-20T10:01:08;7.40;99.90
4433;DHT22;2229;48.708;9.706;2022-11-20T10:03:42;7.40;99.90
4433;DHT22;2229;48.708;9.706;2022-11-20T10:06:15;7.40;99.90
4433;DHT22;2229;48.708;9.706;2022-11-20T10:08:47;7.40;99.90
4433;DHT22;2229;48.708;9.706;2022-11-20T10:11:20;7.40;99.90
4433;DHT22;2229;48.708;9.706;2022-11-20T10:13:57;7.40;99.90
4433;DHT22;2229;48.708;9.706;2022-11-20T10:16:34;7.40;99.90
4433;DHT22;2229;48.708;9.706;2022-11-20T10:19:18;7.40;99.90
4433;DHT22;2229;48.708;9.706;2022-11-20T10:21:59;7.40;99.90
4433;DHT22;2229;48.708;9.706;2022-11-20T10:24:50;7.40;99.90
4433;DHT22;2229;48.708;9.706;2022-11-20T10:27:34;7.40;99.90
4433;DHT22;2229;48.708;9.706;2022-11-20T10:30:09;7.40;99.90
4433;DHT22;2229;48.708;9.706;2022-11-20T10:32:39;7.40;99.90
4433;DHT22;2229;48.708;9.706;2022-11-20T10:35:17;7.40;99.90
4433;DHT22;2229;48.708;9.706;2022-11-20T10:37:48;7.30;99.90
4433;DHT22;2229;48.708;9.706;2022-11-20T10:40:22;7.40;99.90
4433;DHT22;2229;48.708;9.706;2022-11-20T10:42:52;7.30;99.90
4433;DHT22;2229;48.708;9.706;2022-11-20T10:45:43;7.40;99.90
4433;DHT22;2229;48.708;9.706;2022-11-20T10:48:15;7.40;99.90
4433;DHT22;2229;48.708;9.706;2022-11-20T10:50:56;7.40;99.90
4433;DHT22;2229;48.708;9.706;2022-11-20T10:53:36;7.40;99.90
4433;DHT22;2229;48.708;9.706;2022-11-20T10:56:09;7.40;99.90
4433;DHT22;2229;48.708;9.706;2022-11-20T10:58:45;7.40;99.90
4433;DHT22;2229;48.708;9.706;2022-11-20T11:01:17;7.40;99.90
4433;DHT22;2229;48.708;9.706;2022-11-20T11:03:45;7.40;99.90
4433;DHT22;2229;48.708;9.706;2022-11-20T11:06:17;7.30;99.90
4433;DHT22;2229;48.708;9.706;2022-11-20T11:08:48;7.30;99.90
4433;DHT22;2229;48.708;9.706;2022-11-20T11:11:21;7.30;99.90
4433;DHT22;2229;48.708;9.706;2022-11-20T11:13:49;7.40;99.90
4433;DHT22;2229;48.708;9.706;2022-11-20T11:16:22;7.40;99.90
4433;DHT22;2229;48.708;9.706;2022-11-20T11:18:49;7.40;99.90
4433;DHT22;2229;48.708;9.706;2022-11-20T11:21:21;7.30;99.90
4433;DHT22;2229;48.708;9.706;2022-11-20T11:23:59;7.20;99.90
4433;DHT22;2229;48.708;9.706;2022-11-20T11:26:26;7.20;99.90
4433;DHT22;2229;48.708;9.706;2022-11-20T11:28:58;7.20;99.90
4433;DHT22;2229;48.708;9.706;2022-11-20T11:31:29;7.20;99.90
4433;DHT22;2229;48.708;9.706;2022-11-20T11:34:06;7.20;99.90
4433;DHT22;2229;48.708;9.706;2022-11-20T11:36:34;7.10;99.90
4433;DHT22;2229;48.708;9.706;2022-11-20T11:39:08;7.10;99.90
4433;DHT22;2229;48.708;9.706;2022-11-20T11:41:38;7.10;99.90
4433;DHT22;2229;48.708;9.706;2022-11-20T11:44:16;7.10;99.90
4433;DHT22;2229;48.708;9.706;2022-11-20T11:47:04;7.10;99.90
4433;DHT22;2229;48.708;9.706;2022-11-20T11:49:32;7.10;99.90
4433;DHT22;2229;48.708;9.706;2022-11-20T11:52:05;7.10;99.90
4433;DHT22;2229;48.708;9.706;2022-11-20T11:54:38;7.10;99.90
4433;DHT22;2229;48.708;9.706;2022-11-20T11:57:14;7.10;99.90
4433;DHT22;2229;48.708;9.706;2022-11-20T11:59:54;7.10;99.90
4433;DHT22;2229;48.708;9.706;2022-11-20T12:02:35;7.10;99.90
4433;DHT22;2229;48.708;9.706;2022-11-20T12:05:13;7.10;99.90
4433;DHT22;2229;48.708;9.706;2022-11-20T12:07:44;7.10;99.90
4433;DHT22;2229;48.708;9.706;2022-11-20T12:10:20;7.20;99.90
4433;DHT22;2229;48.708;9.706;2022-11-20T12:12:52;7.30;99.90
4433;DHT22;2229;48.708;9.706;2022-11-20T12:15:26;7.30;99.90
4433;DHT22;2229;48.708;9.706;2022-11-20T12:17:57;7.40;99.90
4433;DHT22;2229;48.708;9.706;2022-11-20T12:20:28;7.50;99.90
4433;DHT22;2229;48.708;9.706;2022-11-20T12:23:02;7.60;99.90
4433;DHT22;2229;48.708;9.706;2022-11-20T12:25:35;7.90;99.90
4433;DHT22;2229;48.708;9.706;2022-11-20T12:28:28;8.20;99.90
4433;DHT22;2229;48.708;9.706;2022-11-20T12:31:13;8.40;99.90
4433;DHT22;2229;48.708;9.706;2022-11-20T12:34:05;8.60;99.90
4433;DHT22;2229;48.708;9.706;2022-11-20T12:36:42;8.80;99.90
4433;DHT22;2229;48.708;9.706;2022-11-20T12:39:26;8.80;99.90
4433;DHT22;2229;48.708;9.706;2022-11-20T12:42:07;8.90;99.90
4433;DHT22;2229;48.708;9.706;2022-11-20T12:45:14;8.80;99.90
4433;DHT22;2229;48.708;9.706;2022-11-20T12:50:49;8.80;99.90
4433;DHT22;2229;48.708;9.706;2022-11-20T12:53:25;8.80;99.90
4433;DHT22;2229;48.708;9.706;2022-11-20T12:55:58;8.80;99.90
4433;DHT22;2229;48.708;9.706;2022-11-20T12:58:36;8.80;99.90
4433;DHT22;2229;48.708;9.706;2022-11-20T13:01:20;8.80;99.90
4433;DHT22;2229;48.708;9.706;2022-11-20T13:04:15;8.70;99.90
4433;DHT22;2229;48.708;9.706;2022-11-20T13:06:54;8.60;99.90
4433;DHT22;2229;48.708;9.706;2022-11-20T13:09:22;8.60;99.90
4433;DHT22;2229;48.708;9.706;2022-11-20T13:11:56;8.60;99.90
4433;DHT22;2229;48.708;9.706;2022-11-20T13:14:34;8.60;99.90
4433;DHT22;2229;48.708;9.706;2022-11-20T13:17:07;8.60;99.90
4433;DHT22;2229;48.708;9.706;2022-11-20T13:19:37;8.60;99.90
4433;DHT22;2229;48.708;9.706;2022-11-20T13:22:08;8.70;99.90
4433;DHT22;2229;48.708;9.706;2022-11-20T13:24:36;8.70;99.90
4433;DHT22;2229;48.708;9.706;2022-11-20T13:27:17;8.60;99.90
4433;DHT22;2229;48.708;9.706;2022-11-20T13:29:46;8.60;99.90
4433;DHT22;2229;48.708;9.706;2022-11-20T13:32:15;8.60;99.90
4433;DHT22;2229;48.708;9.706;2022-11-20T13:34:54;8.50;99.90
4433;DHT22;2229;48.708;9.706;2022-11-20T13:37:30;8.50;99.90
4433;DHT22;2229;48.708;9.706;2022-11-20T13:40:21;8.40;99.90
4433;DHT22;2229;48.708;9.706;2022-11-20T13:42:56;8.30;99.90
4433;DHT22;2229;48.708;9.706;2022-11-20T13:45:28;8.20;99.90
4433;DHT22;2229;48.708;9.706;2022-11-20T13:47:56;8.20;99.90
4433;DHT22;2229;48.708;9.706;2022-11-20T13:50:39;8.10;99.90
4433;DHT22;2229;48.708;9.706;2022-11-20T13:53:19;8.00;99.90
4433;DHT22;2229;48.708;9.706;2022-11-20T13:55:54;8.00;99.90
4433;DHT22;2229;48.708;9.706;2022-11-20T13:58:33;8.00;99.90
4433;DHT22;2229;48.708;9.706;2022-11-20T14:01:09;8.00;99.90
4433;DHT22;2229;48.708;9.706;2022-11-20T14:03:41;8.10;99.90
4433;DHT22;2229;48.708;9.706;2022-11-20T14:06:12;8.10;99.90
4433;DHT22;2229;48.708;9.706;2022-11-20T14:08:45;8.10;99.90
4433;DHT22;2229;48.708;9.706;2022-11-20T14:11:16;8.10;99.90
4433;DHT22;2229;48.708;9.706;2022-11-20T14:14:02;8.10;99.90
4433;DHT22;2229;48.708;9.706;2022-11-20T14:16:31;8.10;99.90
4433;DHT22;2229;48.708;9.706;2022-11-20T14:19:22;7.90;99.90
4433;DHT22;2229;48.708;9.706;2022-11-20T14:21:53;8.00;99.90
4433;DHT22;2229;48.708;9.706;2022-11-20T14:24:23;8.00;99.90
4433;DHT22;2229;48.708;9.706;2022-11-20T14:26:51;8.00;99.90
4433;DHT22;2229;48.708;9.706;2022-11-20T14:29:19;8.00;99.90
4433;DHT22;2229;48.708;9.706;2022-11-20T14:31:51;8.00;99.90
4433;DHT22;2229;48.708;9.706;2022-11-20T14:34:23;8.00;99.90
4433;DHT22;2229;48.708;9.706;2022-11-20T14:36:56;8.00;99.90
4433;DHT22;2229;48.708;9.706;2022-11-20T14:39:30;8.00;99.90
4433;DHT22;2229;48.708;9.706;2022-11-20T14:41:58;8.10;99.90
4433;DHT22;2229;48.708;9.706;2022-11-20T14:44:27;8.20;99.90
4433;DHT22;2229;48.708;9.706;2022-11-20T14:46:56;8.20;99.90
4433;DHT22;2229;48.708;9.706;2022-11-20T14:49:24;8.30;99.90
4433;DHT22;2229;48.708;9.706;2022-11-20T14:52:12;8.30;99.90
4433;DHT22;2229;48.708;9.706;2022-11-20T14:54:45;8.30;99.90
4433;DHT22;2229;48.708;9.706;2022-11-20T14:57:27;8.20;99.90
4433;DHT22;2229;48.708;9.706;2022-11-20T15:00:06;8.10;99.90
4433;DHT22;2229;48.708;9.706;2022-11-20T15:02:34;8.00;99.90
4433;DHT22;2229;48.708;9.706;2022-11-20T15:05:03;7.90;99.90
4433;DHT22;2229;48.708;9.706;2022-11-20T15:07:40;7.90;99.90
4433;DHT22;2229;48.708;9.706;2022-11-20T15:10:19;7.80;99.90
4433;DHT22;2229;48.708;9.706;2022-11-20T15:12:48;7.70;99.90
4433;DHT22;2229;48.708;9.706;2022-11-20T15:15:20;7.70;99.90
4433;DHT22;2229;48.708;9.706;2022-11-20T15:17:48;7.60;99.90
4433;DHT22;2229;48.708;9.706;2022-11-20T15:20:16;7.50;99.90
4433;DHT22;2229;48.708;9.706;2022-11-20T15:22:44;7.50;99.90
4433;DHT22;2229;48.708;9.706;2022-11-20T15:25:14;7.40;99.90
4433;DHT22;2229;48.708;9.706;2022-11-20T15:27:41;7.30;99.90
4433;DHT22;2229;48.708;9.706;2022-11-20T15:30:13;7.30;99.90
4433;DHT22;2229;48.708;9.706;2022-11-20T15:32:42;7.20;99.90
4433;DHT22;2229;48.708;9.706;2022-11-20T15:35:10;7.20;99.90
4433;DHT22;2229;48.708;9.706;2022-11-20T15:37:38;7.20;99.90
4433;DHT22;2229;48.708;9.706;2022-11-20T15:40:06;7.20;99.90
4433;DHT22;2229;48.708;9.706;2022-11-20T15:42:35;7.20;99.90
4433;DHT22;2229;48.708;9.706;2022-11-20T15:45:03;7.20;99.90
4433;DHT22;2229;48.708;9.706;2022-11-20T15:47:32;7.20;99.90
4433;DHT22;2229;48.708;9.706;2022-11-20T15:50:00;7.20;99.90
4433;DHT22;2229;48.708;9.706;2022-11-20T15:52:27;7.20;99.90
4433;DHT22;2229;48.708;9.706;2022-11-20T15:54:54;7.30;99.90
4433;DHT22;2229;48.708;9.706;2022-11-20T15:57:24;7.20;99.90
4433;DHT22;2229;48.708;9.706;2022-11-20T16:00:05;7.20;99.90
4433;DHT22;2229;48.708;9.706;2022-11-20T16:02:45;7.10;99.90
4433;DHT22;2229;48.708;9.706;2022-11-20T16:05:13;7.10;99.90
4433;DHT22;2229;48.708;9.706;2022-11-20T16:07:45;7.10;99.90
4433;DHT22;2229;48.708;9.706;2022-11-20T16:10:12;7.00;99.90
4433;DHT22;2229;48.708;9.706;2022-11-20T16:12:40;7.00;99.90
4433;DHT22;2229;48.708;9.706;2022-11-20T16:15:26;6.80;99.90
4433;DHT22;2229;48.708;9.706;2022-11-20T16:18:13;6.80;99.90
4433;DHT22;2229;48.708;9.706;2022-11-20T16:20:48;6.70;99.90
4433;DHT22;2229;48.708;9.706;2022-11-20T16:23:16;6.70;99.90
4433;DHT22;2229;48.708;9.706;2022-11-20T16:25:44;6.60;99.90
4433;DHT22;2229;48.708;9.706;2022-11-20T16:28:12;6.50;99.90
4433;DHT22;2229;48.708;9.706;2022-11-20T16:30:40;6.50;99.90
4433;DHT22;2229;48.708;9.706;2022-11-20T16:33:10;6.50;99.90
4433;DHT22;2229;48.708;9.706;2022-11-20T16:35:38;6.40;99.90
4433;DHT22;2229;48.708;9.706;2022-11-20T16:38:10;6.30;99.90
4433;DHT22;2229;48.708;9.706;2022-11-20T16:40:37;6.30;99.90
4433;DHT22;2229;48.708;9.706;2022-11-20T16:43:10;6.30;99.90
4433;DHT22;2229;48.708;9.706;2022-11-20T16:45:44;6.30;99.90